createdAt,value
2022-11-09T00:01:02.632Z,2.40
2022-11-09T00:04:06.633Z,2.30
2022-11-09T00:07:10.506Z,2.30
2022-11-09T00:10:13.134Z,2.10
2022-11-09T00:13:15.787Z,2.37
2022-11-09T00:16:20.157Z,2.33
2022-11-09T00:19:22.649Z,2.30
2022-11-09T00:22:26.489Z,1.80
2022-11-09T00:25:29.001Z,2.20
2022-11-09T00:28:31.675Z,2.00
2022-11-09T00:31:34.181Z,2.00
2022-11-09T00:34:36.680Z,1.60
2022-11-09T00:37:40.571Z,2.10
2022-11-09T00:40:43.068Z,1.70
2022-11-09T00:43:45.705Z,1.90
2022-11-09T00:46:48.347Z,2.00
2022-11-09T00:49:50.847Z,1.87
2022-11-09T00:52:54.718Z,1.77
2022-11-09T00:55:58.315Z,2.30
2022-11-09T00:59:00.804Z,1.60
2022-11-09T01:02:03.307Z,2.00
2022-11-09T01:05:06.630Z,1.97
2022-11-09T01:08:10.647Z,1.90
2022-11-09T01:11:14.125Z,1.90
2022-11-09T01:14:16.683Z,2.00
2022-11-09T01:17:19.213Z,2.23
2022-11-09T01:20:21.894Z,2.23
2022-11-09T01:23:25.743Z,1.90
2022-11-09T01:26:28.555Z,2.40
2022-11-09T01:29:31.068Z,2.10
2022-11-09T01:32:33.923Z,2.03
2022-11-09T01:35:38.218Z,1.90
2022-11-09T01:38:42.200Z,2.20
2022-11-09T01:41:44.759Z,1.90
2022-11-09T01:44:47.235Z,1.80
2022-11-09T01:47:53.714Z,2.00
2022-11-09T01:51:00.282Z,2.07
2022-11-09T01:54:07.795Z,2.00
2022-11-09T01:57:13.970Z,1.80
2022-11-09T02:00:18.588Z,1.90
2022-11-09T02:03:26.283Z,1.93
2022-11-09T02:06:31.407Z,1.80
2022-11-09T02:09:41.815Z,1.80
2022-11-09T02:12:45.695Z,2.07
2022-11-09T02:15:49.604Z,1.73
2022-11-09T02:18:54.064Z,2.00
2022-11-09T02:21:58.363Z,2.00
2022-11-09T02:25:00.918Z,1.70
2022-11-09T02:28:03.706Z,1.90
2022-11-09T02:31:09.154Z,2.23
2022-11-09T02:34:15.333Z,2.03
2022-11-09T02:37:27.668Z,2.10
2022-11-09T02:40:36.535Z,2.07
2022-11-09T02:43:39.027Z,1.80
2022-11-09T02:46:41.535Z,2.03
2022-11-09T02:49:44.080Z,2.00
2022-11-09T02:52:47.953Z,2.43
2022-11-09T02:55:50.444Z,1.80
2022-11-09T02:58:52.972Z,1.60
2022-11-09T03:01:55.472Z,1.80
2022-11-09T03:04:57.963Z,2.10
2022-11-09T03:08:02.360Z,2.20
2022-11-09T03:11:06.065Z,2.07
2022-11-09T03:14:09.702Z,1.87
2022-11-09T03:17:14.008Z,2.13
2022-11-09T03:20:16.597Z,1.90
2022-11-09T03:23:20.687Z,1.93
2022-11-09T03:26:23.966Z,2.23
2022-11-09T03:29:26.478Z,1.60
2022-11-09T03:32:28.969Z,2.07
2022-11-09T03:35:31.544Z,1.80
2022-11-09T03:38:35.392Z,2.20
2022-11-09T03:41:37.869Z,1.90
2022-11-09T03:44:40.369Z,1.80
2022-11-09T03:47:43.091Z,2.00
2022-11-09T03:50:45.708Z,1.97
2022-11-09T03:53:49.551Z,1.87
2022-11-09T03:56:52.072Z,1.80
2022-11-09T03:59:54.574Z,2.00
2022-11-09T04:02:57.354Z,1.70
2022-11-09T04:05:59.948Z,2.20
2022-11-09T04:09:04.253Z,2.00
2022-11-09T04:12:06.945Z,1.70
2022-11-09T04:15:10.189Z,2.03
2022-11-09T04:18:15.315Z,1.40
2022-11-09T04:21:22.761Z,1.70
2022-11-09T04:24:27.660Z,1.90
2022-11-09T04:27:30.579Z,2.10
2022-11-09T04:30:35.321Z,1.87
2022-11-09T04:33:37.812Z,1.90
2022-11-09T04:36:40.329Z,1.77
2022-11-09T04:39:44.160Z,1.80
2022-11-09T04:42:46.697Z,1.83
2022-11-09T04:45:49.197Z,2.07
2022-11-09T04:48:51.756Z,1.80
2022-11-09T04:51:54.232Z,1.77
2022-11-09T04:54:58.069Z,1.80
2022-11-09T04:58:00.600Z,1.70
2022-11-09T05:01:04.279Z,1.67
2022-11-09T05:04:06.827Z,1.70
2022-11-09T05:07:09.414Z,1.63
2022-11-09T05:10:13.285Z,1.80
2022-11-09T05:13:16.650Z,1.57
2022-11-09T05:16:19.732Z,1.90
2022-11-09T05:19:22.248Z,1.60
2022-11-09T05:22:42.314Z,1.90
2022-11-09T05:25:46.581Z,1.53
2022-11-09T05:28:49.089Z,1.87
2022-11-09T05:31:52.605Z,1.73
2022-11-09T05:34:55.162Z,1.70
2022-11-09T05:37:57.671Z,1.70
2022-11-09T05:41:01.534Z,1.77
2022-11-09T05:44:04.095Z,2.00
2022-11-09T05:47:06.655Z,1.90
2022-11-09T05:50:11.558Z,2.00
2022-11-09T05:53:14.094Z,1.90
2022-11-09T05:56:17.973Z,1.97
2022-11-09T05:59:20.456Z,2.10
2022-11-09T06:02:23.358Z,2.00
2022-11-09T06:05:25.890Z,2.10
2022-11-09T06:08:28.488Z,2.10
2022-11-09T06:11:32.300Z,1.73
2022-11-09T06:14:34.814Z,2.03
2022-11-09T06:17:37.316Z,2.47
2022-11-09T06:20:39.808Z,2.37
2022-11-09T06:23:42.350Z,2.10
2022-11-09T06:26:46.295Z,2.20
2022-11-09T06:29:48.778Z,2.00
2022-11-09T06:32:51.291Z,2.13
2022-11-09T06:35:56.512Z,2.00
2022-11-09T06:38:59.227Z,2.00
2022-11-09T06:42:03.191Z,1.90
2022-11-09T06:45:06.284Z,2.23
2022-11-09T06:48:10.567Z,2.23
2022-11-09T06:51:13.116Z,2.40
2022-11-09T06:54:15.628Z,2.00
2022-11-09T06:57:19.524Z,2.33
2022-11-09T07:00:22.923Z,1.97
2022-11-09T07:03:25.596Z,2.20
2022-11-09T07:06:28.154Z,2.17
2022-11-09T07:09:30.691Z,2.10
2022-11-09T07:12:35.593Z,1.90
2022-11-09T07:15:39.323Z,2.03
2022-11-09T07:18:41.829Z,1.70
2022-11-09T07:21:44.351Z,1.87
2022-11-09T07:24:47.004Z,1.90
2022-11-09T07:27:51.726Z,2.30
2022-11-09T07:30:54.400Z,2.00
2022-11-09T07:33:58.298Z,1.80
2022-11-09T07:37:00.891Z,1.47
2022-11-09T07:40:03.714Z,1.80
2022-11-09T07:43:07.843Z,1.80
2022-11-09T07:46:10.345Z,1.90
2022-11-09T07:49:13.812Z,1.90
2022-11-09T07:52:16.338Z,2.17
2022-11-09T07:55:18.868Z,1.50
2022-11-09T07:58:22.689Z,1.77
2022-11-09T08:01:25.221Z,1.70
2022-11-09T08:04:27.905Z,1.60
2022-11-09T08:07:30.548Z,1.87
2022-11-09T08:10:34.544Z,1.60
2022-11-09T08:13:38.516Z,1.70
2022-11-09T08:16:41.075Z,1.43
2022-11-09T08:19:43.594Z,1.60
2022-11-09T08:22:47.212Z,1.80
2022-11-09T08:25:50.217Z,1.63
2022-11-09T08:28:54.058Z,1.60
2022-11-09T08:31:56.592Z,1.73
2022-11-09T08:34:59.097Z,1.80
2022-11-09T08:38:03.238Z,1.80
2022-11-09T08:41:10.591Z,1.60
2022-11-09T08:44:16.979Z,1.50
2022-11-09T08:47:19.509Z,1.83
2022-11-09T08:50:22.011Z,1.93
2022-11-09T08:53:25.036Z,2.10
2022-11-09T08:56:27.539Z,1.87
2022-11-09T08:59:31.379Z,1.90
2022-11-09T09:02:33.973Z,1.90
2022-11-09T09:05:37.484Z,1.80
2022-11-09T09:08:39.995Z,2.30
2022-11-09T09:11:42.642Z,1.90
2022-11-09T09:14:46.667Z,1.97
2022-11-09T09:17:49.340Z,1.87
2022-11-09T09:20:51.863Z,2.10
2022-11-09T09:23:55.326Z,2.17
2022-11-09T09:26:57.805Z,2.23
2022-11-09T09:30:01.713Z,2.00
2022-11-09T09:33:04.243Z,2.03
2022-11-09T09:36:07.167Z,2.17
2022-11-09T09:39:09.821Z,1.97
2022-11-09T09:42:17.320Z,2.00
2022-11-09T09:45:24.751Z,2.10
2022-11-09T09:48:46.255Z,2.07
2022-11-09T09:51:53.451Z,1.70
2022-11-09T09:55:01.445Z,1.63
2022-11-09T09:58:07.684Z,1.90
2022-11-09T10:01:17.083Z,1.80
2022-11-09T10:04:22.562Z,1.90
2022-11-09T10:07:30.680Z,2.07
2022-11-09T10:10:44.380Z,2.03
2022-11-09T10:14:10.813Z,1.60
2022-11-09T10:17:23.997Z,2.10
2022-11-09T10:20:41.052Z,2.00
2022-11-09T10:24:01.223Z,2.27
2022-11-09T10:27:18.800Z,2.10
2022-11-09T10:30:23.080Z,2.13
2022-11-09T10:33:29.202Z,2.07
2022-11-09T10:36:34.611Z,2.00
2022-11-09T10:39:43.249Z,2.07
2022-11-09T10:42:49.987Z,2.10
2022-11-09T10:46:01.051Z,2.17
2022-11-09T10:49:20.774Z,2.30
2022-11-09T10:52:43.033Z,1.80
2022-11-09T10:55:54.711Z,1.87
2022-11-09T10:58:57.260Z,1.77
2022-11-09T11:02:02.403Z,1.57
2022-11-09T11:05:29.142Z,2.00
2022-11-09T11:08:38.679Z,2.07
2022-11-09T11:11:41.280Z,1.80
2022-11-09T11:14:45.744Z,1.90
2022-11-09T11:17:48.553Z,1.50
2022-11-09T11:21:17.467Z,1.60
2022-11-09T11:24:21.787Z,1.73
2022-11-09T11:27:29.739Z,2.00
2022-11-09T11:30:36.132Z,1.97
2022-11-09T11:33:38.632Z,1.80
2022-11-09T11:36:56.330Z,1.87
2022-11-09T11:40:02.810Z,2.30
2022-11-09T11:43:23.743Z,2.10
2022-11-09T11:46:33.869Z,1.90
2022-11-09T11:50:02.225Z,2.20
2022-11-09T11:53:14.253Z,2.00
2022-11-09T11:56:24.027Z,1.80
2022-11-09T11:59:55.754Z,2.10
2022-11-09T12:03:16.301Z,2.10
2022-11-09T12:06:33.175Z,1.80
2022-11-09T12:10:01.248Z,2.43
2022-11-09T12:13:12.106Z,1.77
2022-11-09T12:16:25.719Z,1.70
2022-11-09T12:19:57.034Z,1.97
2022-11-09T12:23:17.002Z,2.03
2022-11-09T12:26:33.821Z,1.90
2022-11-09T12:29:40.870Z,2.00
2022-11-09T12:32:52.191Z,1.97
2022-11-09T12:35:59.354Z,1.97
2022-11-09T12:39:11.925Z,1.97
2022-11-09T12:42:21.249Z,2.30
2022-11-09T12:45:28.879Z,1.80
2022-11-09T12:48:34.621Z,2.10
2022-11-09T12:51:38.460Z,2.87
2022-11-09T12:54:45.046Z,2.23
2022-11-09T12:57:49.387Z,1.90
2022-11-09T13:00:55.457Z,1.97
2022-11-09T13:03:59.791Z,2.00
2022-11-09T13:07:29.052Z,1.53
2022-11-09T13:10:34.356Z,1.90
2022-11-09T13:13:38.444Z,2.33
2022-11-09T13:16:41.080Z,1.50
2022-11-09T13:19:52.330Z,1.90
2022-11-09T13:23:00.654Z,1.93
2022-11-09T13:26:04.362Z,1.80
2022-11-09T13:29:23.597Z,1.55
2022-11-09T13:32:28.003Z,1.95
2022-11-09T13:36:00.085Z,1.92
2022-11-09T13:39:32.026Z,1.95
2022-11-09T13:42:37.060Z,2.58
2022-11-09T13:45:44.267Z,1.60
2022-11-09T13:48:48.413Z,1.92
2022-11-09T13:51:51.089Z,2.20
2022-11-09T13:54:55.197Z,2.00
2022-11-09T13:58:03.269Z,2.00
2022-11-09T14:01:07.273Z,2.07
2022-11-09T14:04:21.425Z,1.90
2022-11-09T14:07:27.135Z,2.00
2022-11-09T14:10:45.101Z,1.80
2022-11-09T14:14:09.410Z,2.13
2022-11-09T14:17:21.659Z,2.30
2022-11-09T14:20:32.329Z,2.13
2022-11-09T14:23:35.635Z,1.93
2022-11-09T14:26:38.296Z,2.40
2022-11-09T14:29:50.442Z,2.30
2022-11-09T14:32:56.234Z,1.80
2022-11-09T14:36:01.180Z,2.07
2022-11-09T14:39:07.248Z,2.13
2022-11-09T14:42:18.372Z,2.43
2022-11-09T14:45:21.764Z,2.37
2022-11-09T14:48:26.558Z,2.63
2022-11-09T14:51:36.462Z,1.70
2022-11-09T14:54:44.817Z,2.10
2022-11-09T14:57:49.697Z,2.43
2022-11-09T15:01:09.776Z,2.73
2022-11-09T15:04:16.873Z,1.97
2022-11-09T15:07:23.609Z,2.10
2022-11-09T15:10:29.549Z,2.00
2022-11-09T15:13:34.940Z,2.00
2022-11-09T15:16:37.574Z,1.90
2022-11-09T15:19:51.310Z,2.27
2022-11-09T15:22:55.958Z,2.40
2022-11-09T15:25:58.560Z,2.30
2022-11-09T15:29:01.372Z,2.20
2022-11-09T15:32:14.046Z,2.47
2022-11-09T15:35:19.266Z,2.53
2022-11-09T15:38:31.019Z,2.50
2022-11-09T15:41:33.660Z,2.30
2022-11-09T15:44:37.547Z,2.50
2022-11-09T15:47:40.351Z,2.00
2022-11-09T15:50:45.449Z,1.93
2022-11-09T15:53:48.089Z,2.50
2022-11-09T15:56:51.886Z,2.03
2022-11-09T15:59:54.595Z,2.03
2022-11-09T16:02:57.243Z,1.93
2022-11-09T16:06:01.182Z,2.00
2022-11-09T16:09:03.995Z,2.33
2022-11-09T16:12:07.155Z,2.03
2022-11-09T16:15:10.561Z,1.93
2022-11-09T16:18:13.509Z,1.90
2022-11-09T16:21:18.414Z,1.77
2022-11-09T16:24:21.185Z,1.80
2022-11-09T16:27:51.717Z,1.77
2022-11-09T16:30:47.079Z,2.47
2022-11-09T16:33:49.934Z,2.33
2022-11-09T16:36:56.864Z,2.23
2022-11-09T16:40:00.562Z,2.50
2022-11-09T16:43:03.260Z,3.27
2022-11-09T16:46:06.357Z,2.33
2022-11-09T16:49:09.042Z,2.43
2022-11-09T16:52:13.099Z,2.47
2022-11-09T16:55:15.882Z,2.37
2022-11-09T16:58:18.924Z,2.50
2022-11-09T17:01:23.736Z,2.10
2022-11-09T17:04:27.292Z,2.23
2022-11-09T17:07:41.979Z,2.10
2022-11-09T17:10:47.968Z,2.20
2022-11-09T17:13:56.038Z,2.27
2022-11-09T17:16:58.733Z,2.23
2022-11-09T17:20:04.906Z,2.30
2022-11-09T17:23:09.106Z,3.10
2022-11-09T17:26:12.438Z,2.47
2022-11-09T17:29:15.081Z,2.50
2022-11-09T17:32:22.346Z,2.20
2022-11-09T17:35:25.323Z,2.43
2022-11-09T17:38:29.990Z,2.70
2022-11-09T17:41:32.649Z,3.60
2022-11-09T17:44:35.428Z,4.30
2022-11-09T17:47:38.088Z,3.23
2022-11-09T17:50:40.700Z,3.70
2022-11-09T17:53:45.425Z,3.43
2022-11-09T17:56:48.078Z,2.90
2022-11-09T17:59:50.737Z,2.13
2022-11-09T18:02:55.468Z,2.10
2022-11-09T18:05:58.118Z,2.50
2022-11-09T18:12:24.877Z,2.30
2022-11-09T18:15:27.502Z,2.30
2022-11-09T18:18:30.203Z,2.40
2022-11-09T18:21:33.447Z,2.30
2022-11-09T18:24:37.488Z,2.50
2022-11-09T18:27:40.126Z,1.90
2022-11-09T18:30:42.737Z,2.30
2022-11-09T18:33:45.375Z,2.10
2022-11-09T18:36:47.998Z,2.23
2022-11-09T18:39:51.963Z,2.07
2022-11-09T18:42:54.566Z,2.03
2022-11-09T18:45:58.586Z,2.40
2022-11-09T18:49:01.237Z,2.43
2022-11-09T18:52:03.881Z,2.17
2022-11-09T18:55:08.924Z,3.27
2022-11-09T18:58:11.689Z,1.93
2022-11-09T19:01:14.983Z,2.10
2022-11-09T19:04:18.276Z,1.70
2022-11-09T19:07:21.147Z,1.93
2022-11-09T19:10:25.131Z,1.90
2022-11-09T19:13:27.781Z,1.90
2022-11-09T19:16:33.901Z,1.63
2022-11-09T19:19:36.527Z,1.80
2022-11-09T19:22:39.223Z,1.33
2022-11-09T19:25:43.227Z,1.80
2022-11-09T19:28:45.892Z,1.93
2022-11-09T19:31:48.939Z,1.30
2022-11-09T19:34:51.641Z,1.87
2022-11-09T19:37:54.258Z,2.47
2022-11-09T19:40:58.446Z,1.63
2022-11-09T19:44:01.119Z,1.60
2022-11-09T19:47:03.755Z,1.83
2022-11-09T19:50:07.599Z,1.87
2022-11-09T19:53:10.221Z,2.13
2022-11-09T19:56:14.293Z,2.30
2022-11-09T19:59:18.578Z,1.60
2022-11-09T20:02:21.270Z,1.63
2022-11-09T20:05:23.893Z,1.80
2022-11-09T20:08:26.871Z,2.37
2022-11-09T20:11:48.737Z,1.80
2022-11-09T20:14:51.377Z,1.70
2022-11-09T20:17:53.982Z,1.80
2022-11-09T20:20:56.600Z,1.70
2022-11-09T20:23:59.500Z,2.30
2022-11-09T20:27:03.472Z,2.17
2022-11-09T20:30:07.160Z,2.37
2022-11-09T20:33:10.556Z,1.97
2022-11-09T20:36:13.320Z,1.97
2022-11-09T20:39:16.047Z,2.07
2022-11-09T20:42:20.039Z,1.60
2022-11-09T20:45:22.683Z,1.97
2022-11-09T20:48:52.033Z,1.50
2022-11-09T20:51:47.930Z,2.03
2022-11-09T20:54:50.641Z,2.30
2022-11-09T20:57:54.615Z,1.67
2022-11-09T21:01:02.042Z,2.07
2022-11-09T21:04:05.843Z,2.03
2022-11-09T21:07:08.824Z,2.00
2022-11-09T21:10:11.516Z,2.13
2022-11-09T21:13:16.496Z,1.70
2022-11-09T21:16:20.578Z,2.07
2022-11-09T21:19:23.476Z,2.00
2022-11-09T21:22:46.971Z,1.73
2022-11-09T21:26:06.917Z,1.83
2022-11-09T21:29:29.442Z,2.30
2022-11-09T21:32:32.086Z,2.30
2022-11-09T21:35:34.693Z,2.10
2022-11-09T21:38:37.707Z,2.10
2022-11-09T21:41:40.711Z,2.50
2022-11-09T21:44:44.764Z,2.10
2022-11-09T21:47:47.566Z,2.63
2022-11-09T21:50:50.182Z,2.33
2022-11-09T21:53:52.869Z,2.67
2022-11-09T21:56:55.908Z,2.23
2022-11-09T21:59:59.878Z,2.80
2022-11-09T22:03:03.489Z,3.20
2022-11-09T22:06:06.582Z,2.90
2022-11-09T22:09:14.114Z,3.60
2022-11-09T22:12:34.308Z,3.97
2022-11-09T22:15:55.976Z,3.60
2022-11-09T22:19:16.688Z,3.00
2022-11-09T22:22:19.321Z,2.80
2022-11-09T22:25:21.956Z,3.70
2022-11-09T22:28:24.584Z,2.83
2022-11-09T22:31:29.082Z,3.10
2022-11-09T22:34:31.695Z,3.23
2022-11-09T22:37:34.346Z,3.57
2022-11-09T22:40:36.986Z,3.33
2022-11-09T22:43:41.089Z,2.70
2022-11-09T22:46:45.049Z,3.10
2022-11-09T22:49:47.676Z,3.07
2022-11-09T22:52:53.947Z,2.67
2022-11-09T22:55:58.101Z,3.13
2022-11-09T22:59:00.721Z,2.87
2022-11-09T23:02:04.684Z,3.17
2022-11-09T23:05:08.744Z,3.10
2022-11-09T23:08:11.442Z,3.10
2022-11-09T23:11:16.230Z,3.10
2022-11-09T23:14:39.168Z,3.43
2022-11-09T23:18:00.575Z,2.77
2022-11-09T23:21:03.218Z,3.10
2022-11-09T23:24:27.848Z,2.93
2022-11-09T23:27:30.561Z,2.67
2022-11-09T23:30:33.175Z,3.67
2022-11-09T23:33:38.204Z,3.50
2022-11-09T23:36:40.817Z,3.63
2022-11-09T23:39:43.401Z,3.27
2022-11-09T23:42:46.055Z,3.70
2022-11-09T23:45:48.665Z,3.33
2022-11-09T23:48:52.673Z,4.13
2022-11-09T23:51:55.263Z,4.00
2022-11-09T23:54:57.869Z,3.97
2022-11-09T23:58:02.153Z,3.80
